Cuernavaca, Mexico

9:31 AM CST on February 26, 2017 (GMT -0600)
Temixco Morelos | | Change Station

Elev 5002 ft 18.84 °N, 99.23 °W | Updated 9 minutes ago

Clear
Clear
74.4 °F
Feels Like 77 °F
N
0.0
Wind Variable Wind from SSE
Gusts 4.0 mph

Today
High -- | Low -- °F
--% Chance of Precip.
Yesterday
High -- | Low -- °F
Precip. -- in
Pressure 30.17 in
Visibility 10.0 miles
Clouds Clear
Heat Index 77 °F
Dew Point 46 °F
Humidity 36%
Rainfall 0.00 in
Snow Depth Not available.
6:58 AM 6:41 PM
New Moon, 0% visible
METAR MMCB 261452Z 00000KT 10SM SKC 22/04 A3017 RMK CI
Pressure 30.17 in
Visibility 10.0 miles
Clouds Clear
Heat Index 77 °F
Dew Point 46 °F
Humidity 36%
Rainfall 0.00 in
Snow Depth Not available.
6:58 AM 6:41 PM
New Moon, 0% visible
METAR MMCB 261452Z 00000KT 10SM SKC 22/04 A3017 RMK CI

Get Your Daily Forecast Email!

Thanks for signing up!

Be on the lookout for a verification email in your inbox.

You'll start receiving the daily forecast at 8 AM.

×

10-Day Weather Forecast

No radar image for this location.
×

Almanac

Astronomy

Feb. 26, 2017 Rise Set
Actual Time
Civil Twilight
Nautical Twilight
Astronomical Twilight
Moon
Length of Visible Light
Length of Day
Tomorrow will be .
, % of the Moon is Illuminated

Today's Extremes

Country Highs Country Lows

Community

WunderPhotos

Upload Photos

1,962,540 photos uploaded!

WunderBlog® & News

Nearby

Air Quality

  Air Quality AQ Index Pollutant
Not available.

Snow Depth

Station Depth Elevation

Earthquake Activity

City Distance Mag. Time & Date
Minimum magnitude displayed is 2.5.

Coastal Water Temperatures

Place Temperature

Stations

Nearby Weather Stations

Station Location Temp. Windchill Dew Point Humidity Wind Precip. Elev Updated Type